createdAt,value
2018-05-31T00:00:12.965Z,20.20
2018-05-31T00:02:40.586Z,20.20
2018-05-31T00:05:08.228Z,20.20
2018-05-31T00:07:35.775Z,20.20
2018-05-31T00:10:03.342Z,20.20
2018-05-31T00:12:31.049Z,20.10
2018-05-31T00:14:58.605Z,20.10
2018-05-31T00:17:26.175Z,20.10
2018-05-31T00:19:53.746Z,20.10
2018-05-31T00:22:21.304Z,20.10
2018-05-31T00:24:48.876Z,20.00
2018-05-31T00:27:16.460Z,20.00
2018-05-31T00:29:44.084Z,20.00
2018-05-31T00:32:11.651Z,19.90
2018-05-31T00:34:39.211Z,19.90
2018-05-31T00:37:06.780Z,19.80
2018-05-31T00:39:34.407Z,19.80
2018-05-31T00:42:01.976Z,19.80
2018-05-31T00:44:29.632Z,19.80
2018-05-31T00:46:57.197Z,19.80
2018-05-31T00:49:24.739Z,19.80
2018-05-31T00:51:52.323Z,19.70
2018-05-31T00:54:19.905Z,19.80
2018-05-31T00:56:47.474Z,19.80
2018-05-31T00:59:15.016Z,19.80
2018-05-31T01:01:42.584Z,19.80
2018-05-31T01:04:10.132Z,19.70
2018-05-31T01:06:37.711Z,19.70
2018-05-31T01:09:05.289Z,19.80
2018-05-31T01:11:32.884Z,19.70
2018-05-31T01:14:00.648Z,19.70
2018-05-31T01:16:28.212Z,19.70
2018-05-31T01:18:55.784Z,19.70
2018-05-31T01:21:23.346Z,19.70
2018-05-31T01:23:50.908Z,19.70
2018-05-31T01:26:18.473Z,19.60
2018-05-31T01:28:46.056Z,19.60
2018-05-31T01:31:13.652Z,19.60
2018-05-31T01:33:41.986Z,19.60
2018-05-31T01:36:09.556Z,19.60
2018-05-31T01:38:37.229Z,19.60
2018-05-31T01:41:04.800Z,19.50
2018-05-31T01:43:34.001Z,19.50
2018-05-31T01:46:01.567Z,19.50
2018-05-31T01:48:29.929Z,19.50
2018-05-31T01:50:57.486Z,19.40
2018-05-31T01:53:25.028Z,19.50
2018-05-31T01:55:52.605Z,19.50
2018-05-31T01:58:20.153Z,19.50
2018-05-31T02:00:47.732Z,19.50
2018-05-31T02:03:15.286Z,19.50
2018-05-31T02:05:42.867Z,19.50
2018-05-31T02:08:11.188Z,19.50
2018-05-31T02:10:38.793Z,19.50
2018-05-31T02:13:06.347Z,19.50
2018-05-31T02:15:34.027Z,19.50
2018-05-31T02:18:02.353Z,19.50
2018-05-31T02:20:29.934Z,19.50
2018-05-31T02:22:57.492Z,19.50
2018-05-31T02:25:25.061Z,19.40
2018-05-31T02:27:52.632Z,19.40
2018-05-31T02:30:20.195Z,19.50
2018-05-31T02:32:47.799Z,19.40
2018-05-31T02:35:15.369Z,19.30
2018-05-31T02:37:42.932Z,19.30
2018-05-31T02:40:10.525Z,19.30
2018-05-31T02:42:38.151Z,19.20
2018-05-31T02:45:05.700Z,19.20
2018-05-31T02:47:33.271Z,19.20
2018-05-31T02:50:00.812Z,19.20
2018-05-31T02:52:28.378Z,19.20
2018-05-31T02:54:55.927Z,19.20
2018-05-31T02:57:24.256Z,19.10
2018-05-31T02:59:51.826Z,19.10
2018-05-31T03:02:19.496Z,19.10
2018-05-31T03:04:47.043Z,19.10
2018-05-31T03:07:14.626Z,19.00
2018-05-31T03:09:42.948Z,18.90
2018-05-31T03:12:10.744Z,18.90
2018-05-31T03:14:38.308Z,18.90
2018-05-31T03:17:05.883Z,18.90
2018-05-31T03:19:33.460Z,18.90
2018-05-31T03:22:01.788Z,18.90
2018-05-31T03:24:29.357Z,18.90
2018-05-31T03:26:56.908Z,19.00
2018-05-31T03:29:24.544Z,18.90
2018-05-31T03:31:52.088Z,19.00
2018-05-31T03:34:20.415Z,19.00
2018-05-31T03:36:48.051Z,19.00
2018-05-31T03:39:15.626Z,19.00
2018-05-31T03:41:43.189Z,19.10
2018-05-31T03:44:10.766Z,19.10
2018-05-31T03:46:38.349Z,19.10
2018-05-31T03:49:05.926Z,19.10
2018-05-31T03:51:34.303Z,19.10
2018-05-31T03:54:02.616Z,19.20
2018-05-31T03:56:30.212Z,19.10
2018-05-31T03:58:57.775Z,19.20
2018-05-31T04:01:25.484Z,19.20
2018-05-31T04:03:53.040Z,19.20
2018-05-31T04:06:20.581Z,19.20
2018-05-31T04:08:48.896Z,19.20
2018-05-31T04:11:16.496Z,19.20
2018-05-31T04:13:44.039Z,19.30
2018-05-31T04:16:11.732Z,19.30
2018-05-31T04:18:40.079Z,19.50
2018-05-31T04:21:07.672Z,19.50
2018-05-31T04:23:36.041Z,19.70
2018-05-31T04:26:03.605Z,19.70
2018-05-31T04:28:31.159Z,19.80
2018-05-31T04:30:58.736Z,19.90
2018-05-31T04:33:27.070Z,20.20
2018-05-31T04:35:54.659Z,20.10
2018-05-31T04:38:22.222Z,20.20
2018-05-31T04:40:49.764Z,20.30
2018-05-31T04:43:17.392Z,20.50
2018-05-31T04:45:44.968Z,20.60
2018-05-31T04:48:12.533Z,20.70
2018-05-31T04:50:40.179Z,20.90
2018-05-31T04:53:07.752Z,20.90
2018-05-31T04:55:35.303Z,21.10
2018-05-31T04:58:02.964Z,21.40
2018-05-31T05:00:30.544Z,21.40
2018-05-31T05:02:58.136Z,21.20
2018-05-31T05:05:25.678Z,21.30
2018-05-31T05:07:53.386Z,21.40
2018-05-31T05:10:20.976Z,21.50
2018-05-31T05:12:48.532Z,21.60
2018-05-31T05:15:16.271Z,21.60
2018-05-31T05:17:43.828Z,21.40
2018-05-31T05:20:11.419Z,21.60
2018-05-31T05:22:38.980Z,21.70
2018-05-31T05:25:06.581Z,22.30
2018-05-31T05:27:34.128Z,22.70
2018-05-31T05:30:01.704Z,23.10
2018-05-31T05:32:30.050Z,24.00
2018-05-31T05:34:57.704Z,24.00
2018-05-31T05:37:25.289Z,24.80
2018-05-31T05:39:52.868Z,25.10
2018-05-31T05:42:21.208Z,24.90
2018-05-31T05:44:48.765Z,24.90
2018-05-31T05:47:16.355Z,24.80
2018-05-31T05:49:43.909Z,24.80
2018-05-31T05:52:11.603Z,25.10
2018-05-31T05:54:39.157Z,25.50
2018-05-31T05:57:07.503Z,25.70
2018-05-31T05:59:35.076Z,25.60
2018-05-31T06:02:02.687Z,25.70
2018-05-31T06:04:30.274Z,25.80
2018-05-31T06:06:57.961Z,25.50
2018-05-31T06:09:25.551Z,25.00
2018-05-31T06:11:53.180Z,24.60
2018-05-31T06:14:21.544Z,24.00
2018-05-31T06:16:49.276Z,24.00
2018-05-31T06:19:16.870Z,23.80
2018-05-31T06:21:44.435Z,23.60
2018-05-31T06:24:12.016Z,23.70
2018-05-31T06:26:39.590Z,23.70
2018-05-31T06:29:08.084Z,23.90
2018-05-31T06:31:35.636Z,23.80
2018-05-31T06:34:03.983Z,23.80
2018-05-31T06:36:31.595Z,23.80
2018-05-31T06:38:59.164Z,23.70
2018-05-31T06:41:34.144Z,23.60
2018-05-31T06:44:02.829Z,23.70
2018-05-31T06:46:35.543Z,23.70
2018-05-31T06:49:03.255Z,23.80
2018-05-31T06:51:31.300Z,23.80
2018-05-31T06:53:58.867Z,23.80
2018-05-31T06:56:26.440Z,23.90
2018-05-31T06:58:54.083Z,23.90
2018-05-31T07:01:21.664Z,23.90
2018-05-31T07:03:49.300Z,24.00
2018-05-31T07:06:16.924Z,24.10
2018-05-31T07:08:45.257Z,24.10
2018-05-31T07:11:12.843Z,24.10
2018-05-31T07:13:40.392Z,23.90
2018-05-31T07:16:07.970Z,23.60
2018-05-31T07:18:35.525Z,23.80
2018-05-31T07:21:03.136Z,24.10
2018-05-31T07:23:30.673Z,24.30
2018-05-31T07:25:59.004Z,24.20
2018-05-31T07:28:26.574Z,24.20
2018-05-31T07:30:54.143Z,24.40
2018-05-31T07:33:21.688Z,24.50
2018-05-31T07:35:49.259Z,24.50
2018-05-31T07:38:16.832Z,24.50
2018-05-31T07:40:44.423Z,24.50
2018-05-31T07:43:11.980Z,24.60
2018-05-31T07:45:39.749Z,24.50
2018-05-31T07:48:07.321Z,24.40
2018-05-31T07:50:34.976Z,24.50
2018-05-31T07:53:02.564Z,24.50
2018-05-31T07:55:30.143Z,24.30
2018-05-31T07:57:58.703Z,24.40
2018-05-31T08:00:26.476Z,24.40
2018-05-31T08:02:54.147Z,24.50
2018-05-31T08:05:21.700Z,24.20
2018-05-31T08:07:49.280Z,24.30
2018-05-31T08:10:16.900Z,24.20
2018-05-31T08:12:44.488Z,24.30
2018-05-31T08:15:12.188Z,24.50
2018-05-31T08:17:40.555Z,24.60
2018-05-31T08:20:08.123Z,24.60
2018-05-31T08:22:35.659Z,24.80
2018-05-31T08:25:03.248Z,24.80
2018-05-31T08:27:31.568Z,25.10
2018-05-31T08:29:59.227Z,25.10
2018-05-31T08:32:26.783Z,25.10
2018-05-31T08:34:54.365Z,24.90
2018-05-31T08:37:21.933Z,24.80
2018-05-31T08:39:49.497Z,25.00
2018-05-31T08:42:17.066Z,25.10
2018-05-31T08:44:44.651Z,25.10
2018-05-31T08:47:13.007Z,24.80
2018-05-31T08:49:41.375Z,24.80
2018-05-31T08:52:08.964Z,24.80
2018-05-31T08:54:36.707Z,24.80
2018-05-31T08:57:04.304Z,24.90
2018-05-31T08:59:32.712Z,24.80
2018-05-31T09:02:00.365Z,24.80
2018-05-31T09:04:28.011Z,25.00
2018-05-31T09:06:56.364Z,25.40
2018-05-31T09:09:23.964Z,25.30
2018-05-31T09:11:51.667Z,25.60
2018-05-31T09:14:19.215Z,25.80
2018-05-31T09:16:46.820Z,26.10
2018-05-31T09:19:14.385Z,26.00
2018-05-31T09:21:42.828Z,26.10
2018-05-31T09:24:10.412Z,26.10
2018-05-31T09:26:37.999Z,26.10
2018-05-31T09:29:05.630Z,26.10
2018-05-31T09:31:33.354Z,25.90
2018-05-31T09:34:00.930Z,25.90
2018-05-31T09:36:28.550Z,25.90
2018-05-31T09:38:56.097Z,26.00
2018-05-31T09:41:24.407Z,26.60
2018-05-31T09:43:52.338Z,26.60
2018-05-31T09:46:20.740Z,26.80
2018-05-31T09:48:48.320Z,26.80
2018-05-31T09:51:16.592Z,26.70
2018-05-31T09:53:44.508Z,26.70
2018-05-31T09:56:12.060Z,26.70
2018-05-31T09:58:39.624Z,27.30
2018-05-31T10:01:07.200Z,27.80
2018-05-31T10:03:35.519Z,28.30
2018-05-31T10:06:03.139Z,28.20
2018-05-31T10:08:31.479Z,28.00
2018-05-31T10:10:59.040Z,28.00
2018-05-31T10:13:26.604Z,28.20
2018-05-31T10:15:54.183Z,27.90
2018-05-31T10:18:21.723Z,27.90
2018-05-31T10:20:49.304Z,27.80
2018-05-31T10:23:16.862Z,27.70
2018-05-31T10:25:44.669Z,27.50
2018-05-31T10:28:12.220Z,27.50
2018-05-31T10:30:39.814Z,27.40
2018-05-31T10:33:07.368Z,27.60
2018-05-31T10:35:34.953Z,27.60
2018-05-31T10:38:02.518Z,27.40
2018-05-31T10:40:30.095Z,27.00
2018-05-31T10:42:57.770Z,27.00
2018-05-31T10:45:26.101Z,27.20
2018-05-31T10:47:53.680Z,27.20
2018-05-31T10:50:21.241Z,27.20
2018-05-31T10:52:51.911Z,27.20
2018-05-31T10:55:19.503Z,27.10
2018-05-31T10:57:47.080Z,26.80
2018-05-31T11:00:14.753Z,26.30
2018-05-31T11:02:42.319Z,26.40
2018-05-31T11:05:09.883Z,26.40
2018-05-31T11:07:37.492Z,26.40
2018-05-31T11:10:05.053Z,26.40
2018-05-31T11:12:32.629Z,26.50
2018-05-31T11:15:00.333Z,26.60
2018-05-31T11:17:27.871Z,26.70
2018-05-31T11:19:55.434Z,26.90
2018-05-31T11:22:22.996Z,26.70
2018-05-31T11:24:50.604Z,26.70
2018-05-31T11:27:19.220Z,26.90
2018-05-31T11:29:46.771Z,26.80
2018-05-31T11:32:14.403Z,26.80
2018-05-31T11:34:42.814Z,27.10
2018-05-31T11:37:11.194Z,26.80
2018-05-31T11:39:39.188Z,26.70
2018-05-31T11:42:07.750Z,26.70
2018-05-31T11:44:35.756Z,26.70
2018-05-31T11:47:03.374Z,27.10
2018-05-31T11:49:31.089Z,27.30
2018-05-31T11:51:59.631Z,26.60
2018-05-31T11:54:27.210Z,26.60
2018-05-31T11:56:54.791Z,26.60
2018-05-31T11:59:22.490Z,26.30
2018-05-31T12:01:50.045Z,26.20
2018-05-31T12:04:17.692Z,26.00
2018-05-31T12:06:45.386Z,26.00
2018-05-31T12:09:13.114Z,25.90
2018-05-31T12:11:43.572Z,25.90
2018-05-31T12:14:11.178Z,25.90
2018-05-31T12:16:38.770Z,26.00
2018-05-31T12:19:07.080Z,26.50
2018-05-31T12:21:34.649Z,26.50
2018-05-31T12:24:02.239Z,26.80
2018-05-31T12:26:31.492Z,27.20
2018-05-31T12:29:00.028Z,27.30
2018-05-31T12:31:35.746Z,27.30
2018-05-31T12:34:03.472Z,27.30
2018-05-31T12:36:31.783Z,27.50
2018-05-31T12:38:59.368Z,27.40
2018-05-31T12:41:27.118Z,27.80
2018-05-31T12:43:54.693Z,27.60
2018-05-31T12:46:22.300Z,27.50
2018-05-31T12:48:50.608Z,27.60
2018-05-31T12:51:18.160Z,27.60
2018-05-31T12:53:46.045Z,27.60
2018-05-31T12:56:13.619Z,27.70
2018-05-31T12:58:41.194Z,27.70
2018-05-31T13:01:08.747Z,27.70
2018-05-31T13:03:36.323Z,27.60
2018-05-31T13:06:04.041Z,27.60
2018-05-31T13:08:31.493Z,27.50
2018-05-31T13:10:59.060Z,27.40
2018-05-31T13:13:26.647Z,27.70
2018-05-31T13:15:54.203Z,27.80
2018-05-31T13:18:21.811Z,28.00
2018-05-31T13:20:50.308Z,28.20
2018-05-31T13:23:17.903Z,28.20
2018-05-31T13:25:45.517Z,28.20
2018-05-31T13:28:13.915Z,28.40
2018-05-31T13:30:41.520Z,28.40
2018-05-31T13:33:10.900Z,28.40
2018-05-31T13:35:38.542Z,28.60
2018-05-31T13:38:06.161Z,28.40
2018-05-31T13:40:34.521Z,28.50
2018-05-31T13:43:02.081Z,28.50
2018-05-31T13:45:29.645Z,28.60
2018-05-31T13:47:57.226Z,28.60
2018-05-31T13:50:24.838Z,28.90
2018-05-31T13:52:52.403Z,28.90
2018-05-31T13:55:19.958Z,28.90
2018-05-31T13:57:47.536Z,28.90
2018-05-31T14:00:15.107Z,29.10
2018-05-31T14:02:42.695Z,29.10
2018-05-31T14:05:11.100Z,29.20
2018-05-31T14:07:38.687Z,29.20
2018-05-31T14:10:06.352Z,29.40
2018-05-31T14:12:33.937Z,29.60
2018-05-31T14:15:01.595Z,29.70
2018-05-31T14:17:29.511Z,29.40
2018-05-31T14:19:57.182Z,29.30
2018-05-31T14:22:24.772Z,29.00
2018-05-31T14:24:52.351Z,29.00
2018-05-31T14:27:19.936Z,29.10
2018-05-31T14:29:48.255Z,28.80
2018-05-31T14:32:15.868Z,28.80
2018-05-31T14:34:44.211Z,28.70
2018-05-31T14:37:13.690Z,28.70
2018-05-31T14:39:41.238Z,28.90
2018-05-31T14:42:08.904Z,28.70
2018-05-31T14:44:36.757Z,28.70
2018-05-31T14:47:04.320Z,28.70
2018-05-31T14:49:31.889Z,28.70
2018-05-31T14:51:59.482Z,28.70
2018-05-31T14:54:27.169Z,28.70
2018-05-31T14:56:54.773Z,28.80
2018-05-31T14:59:23.168Z,28.90
2018-05-31T15:01:50.711Z,28.90
2018-05-31T15:04:18.305Z,28.80
2018-05-31T15:06:45.889Z,29.00
2018-05-31T15:09:13.540Z,28.90
2018-05-31T15:11:41.204Z,29.00
2018-05-31T15:14:08.903Z,28.80
2018-05-31T15:16:36.562Z,28.90
2018-05-31T15:19:04.885Z,28.70
2018-05-31T15:21:32.607Z,28.70
2018-05-31T15:24:00.275Z,28.70
2018-05-31T15:26:27.855Z,28.60
2018-05-31T15:28:55.423Z,28.70
2018-05-31T15:31:22.995Z,28.70
2018-05-31T15:33:50.568Z,28.70
2018-05-31T15:36:18.186Z,28.80
2018-05-31T15:38:45.740Z,28.70
2018-05-31T15:41:13.313Z,28.50
2018-05-31T15:43:40.907Z,28.40
2018-05-31T15:46:08.477Z,28.30
2018-05-31T15:48:36.037Z,28.40
2018-05-31T15:51:03.671Z,28.20
2018-05-31T15:53:31.255Z,28.10
2018-05-31T15:55:58.815Z,28.10
2018-05-31T15:58:26.479Z,28.20
2018-05-31T16:00:54.030Z,28.20
2018-05-31T16:03:21.712Z,28.10
2018-05-31T16:05:49.397Z,28.00
2018-05-31T16:08:17.780Z,27.90
2018-05-31T16:10:45.380Z,27.90
2018-05-31T16:13:13.628Z,28.00
2018-05-31T16:15:41.212Z,28.10
2018-05-31T16:18:08.871Z,28.10
2018-05-31T16:20:36.410Z,28.10
2018-05-31T16:23:03.983Z,27.80
2018-05-31T16:25:31.536Z,27.90
2018-05-31T16:27:59.120Z,27.80
2018-05-31T16:30:26.724Z,27.80
2018-05-31T16:32:55.043Z,27.90
2018-05-31T16:35:22.629Z,27.90
2018-05-31T16:37:50.416Z,27.90
2018-05-31T16:40:18.000Z,28.10
2018-05-31T16:42:46.331Z,28.20
2018-05-31T16:45:14.060Z,28.20
2018-05-31T16:47:41.626Z,28.20
2018-05-31T16:50:09.356Z,28.30
2018-05-31T16:52:36.904Z,28.20
2018-05-31T16:55:04.498Z,28.20
2018-05-31T16:57:32.960Z,28.20
2018-05-31T17:00:01.298Z,27.90
2018-05-31T17:02:28.889Z,27.90
2018-05-31T17:04:56.435Z,27.90
2018-05-31T17:07:24.033Z,27.80
2018-05-31T17:09:52.483Z,27.90
2018-05-31T17:12:20.105Z,27.80
2018-05-31T17:14:47.696Z,27.80
2018-05-31T17:17:15.327Z,27.80
2018-05-31T17:19:42.912Z,27.80
2018-05-31T17:22:10.501Z,27.60
2018-05-31T17:24:38.049Z,27.50
2018-05-31T17:27:05.606Z,27.40
2018-05-31T17:29:33.172Z,27.40
2018-05-31T17:32:00.751Z,27.30
2018-05-31T17:34:29.063Z,27.30
2018-05-31T17:36:56.627Z,27.30
2018-05-31T17:39:24.384Z,27.40
2018-05-31T17:41:51.928Z,27.40
2018-05-31T17:44:19.503Z,27.40
2018-05-31T17:46:47.080Z,27.30
2018-05-31T17:49:14.708Z,27.30
2018-05-31T17:51:42.253Z,27.40
2018-05-31T17:54:10.604Z,27.20
2018-05-31T17:56:38.162Z,27.20
2018-05-31T17:59:05.731Z,27.30
2018-05-31T18:01:34.998Z,27.10
2018-05-31T18:04:02.650Z,27.10
2018-05-31T18:06:30.243Z,27.00
2018-05-31T18:08:57.848Z,26.90
2018-05-31T18:11:25.403Z,26.90
2018-05-31T18:13:52.995Z,26.90
2018-05-31T18:16:20.600Z,26.80
2018-05-31T18:18:48.160Z,26.80
2018-05-31T18:21:15.738Z,26.70
2018-05-31T18:23:44.089Z,26.60
2018-05-31T18:26:11.656Z,26.60
2018-05-31T18:28:39.276Z,26.60
2018-05-31T18:31:06.909Z,26.60
2018-05-31T18:33:35.272Z,26.40
2018-05-31T18:36:02.882Z,26.40
2018-05-31T18:38:30.456Z,26.30
2018-05-31T18:40:58.034Z,26.20
2018-05-31T18:43:25.608Z,26.20
2018-05-31T18:45:53.192Z,26.10
2018-05-31T18:48:20.792Z,26.10
2018-05-31T18:50:48.365Z,26.10
2018-05-31T18:53:15.971Z,26.10
2018-05-31T18:55:44.403Z,25.90
2018-05-31T18:58:12.182Z,25.90
2018-05-31T19:00:39.875Z,25.70
2018-05-31T19:03:08.233Z,25.70
2018-05-31T19:05:35.793Z,25.60
2018-05-31T19:08:04.901Z,25.60
2018-05-31T19:10:32.518Z,25.60
2018-05-31T19:13:05.647Z,25.50
2018-05-31T19:15:33.443Z,25.50
2018-05-31T19:18:01.842Z,25.50
2018-05-31T19:20:29.429Z,25.50
2018-05-31T19:22:57.446Z,25.40
2018-05-31T19:25:25.056Z,25.40
2018-05-31T19:27:52.853Z,25.30
2018-05-31T19:30:26.115Z,25.30
2018-05-31T19:32:53.685Z,25.20
2018-05-31T19:35:27.036Z,25.20
2018-05-31T19:37:54.577Z,25.20
2018-05-31T19:40:22.943Z,25.10
2018-05-31T19:42:56.140Z,25.10
2018-05-31T19:45:24.653Z,25.10
2018-05-31T19:47:52.216Z,25.10
2018-05-31T19:50:19.785Z,25.10
2018-05-31T19:52:52.918Z,25.10
2018-05-31T19:55:20.638Z,25.00
2018-05-31T19:57:53.808Z,25.00
2018-05-31T20:03:36.792Z,24.80
2018-05-31T20:06:04.384Z,24.80
2018-05-31T20:08:31.948Z,24.70
2018-05-31T20:10:59.504Z,24.50
2018-05-31T20:13:27.096Z,24.60
2018-05-31T20:15:54.810Z,24.60
2018-05-31T20:18:22.404Z,24.60
2018-05-31T20:20:49.973Z,24.50
2018-05-31T20:23:17.665Z,24.40
2018-05-31T20:25:45.239Z,24.30
2018-05-31T20:28:12.825Z,24.30
2018-05-31T20:30:40.428Z,24.20
2018-05-31T20:33:08.003Z,24.20
2018-05-31T20:35:35.564Z,24.20
2018-05-31T20:38:03.124Z,24.20
2018-05-31T20:40:30.700Z,24.20
2018-05-31T20:42:58.279Z,24.10
2018-05-31T20:45:26.510Z,24.10
2018-05-31T20:47:54.336Z,24.10
2018-05-31T20:50:21.940Z,24.00
2018-05-31T20:52:49.697Z,24.00
2018-05-31T20:55:17.309Z,24.00
2018-05-31T20:57:44.861Z,23.90
2018-05-31T21:00:12.585Z,23.90
2018-05-31T21:02:40.256Z,23.80
2018-05-31T21:05:07.855Z,23.80
2018-05-31T21:07:35.433Z,23.90
2018-05-31T21:10:03.796Z,23.80
2018-05-31T21:12:31.370Z,23.80
2018-05-31T21:14:58.996Z,23.70
2018-05-31T21:17:26.595Z,23.70
2018-05-31T21:19:54.157Z,23.60
2018-05-31T21:22:21.731Z,23.60
2018-05-31T21:24:50.144Z,23.50
2018-05-31T21:27:17.843Z,23.50
2018-05-31T21:29:45.403Z,23.50
2018-05-31T21:32:13.002Z,23.30
2018-05-31T21:34:41.447Z,23.20
2018-05-31T21:37:09.461Z,23.20
2018-05-31T21:39:38.057Z,23.30
2018-05-31T21:42:05.735Z,23.20
2018-05-31T21:44:33.359Z,23.30
2018-05-31T21:47:00.943Z,23.30
2018-05-31T21:49:28.499Z,23.30
2018-05-31T21:51:56.180Z,23.30
2018-05-31T21:54:23.768Z,23.30
2018-05-31T21:56:51.459Z,23.20
2018-05-31T21:59:19.841Z,23.10
2018-05-31T22:01:47.540Z,23.10
2018-05-31T22:04:15.206Z,23.10
2018-05-31T22:06:42.884Z,23.10
2018-05-31T22:09:10.663Z,23.10
2018-05-31T22:11:38.216Z,23.00
2018-05-31T22:14:05.808Z,23.00
2018-05-31T22:16:34.148Z,22.90
2018-05-31T22:19:01.755Z,22.90
2018-05-31T22:21:30.087Z,22.80
2018-05-31T22:23:57.695Z,22.80
2018-05-31T22:26:26.069Z,22.80
2018-05-31T22:28:54.388Z,22.80
2018-05-31T22:31:21.960Z,22.80
2018-05-31T22:33:49.520Z,22.90
2018-05-31T22:36:17.155Z,22.90
2018-05-31T22:38:44.720Z,22.80
2018-05-31T22:41:12.308Z,22.80
2018-05-31T22:43:39.963Z,22.70
2018-05-31T22:46:07.574Z,22.70
2018-05-31T22:48:35.919Z,22.70
2018-05-31T22:51:03.495Z,22.70
2018-05-31T22:53:31.093Z,22.60
2018-05-31T22:55:58.720Z,22.60
2018-05-31T22:58:27.081Z,22.40
2018-05-31T23:00:54.659Z,22.40
2018-05-31T23:03:22.461Z,22.40
2018-05-31T23:05:50.048Z,22.40
2018-05-31T23:08:17.619Z,22.40
2018-05-31T23:10:45.240Z,22.40
2018-05-31T23:13:12.820Z,22.40
2018-05-31T23:15:40.401Z,22.40
2018-05-31T23:18:08.052Z,22.30
2018-05-31T23:20:35.784Z,22.20
2018-05-31T23:23:04.133Z,22.10
2018-05-31T23:25:31.701Z,22.00
2018-05-31T23:27:59.288Z,22.00
2018-05-31T23:30:26.856Z,22.00
2018-05-31T23:32:54.440Z,22.10
2018-05-31T23:35:21.999Z,22.10
2018-05-31T23:37:49.553Z,22.00
2018-05-31T23:40:17.152Z,22.00
2018-05-31T23:42:44.724Z,21.90
2018-05-31T23:45:13.056Z,21.90
2018-05-31T23:47:40.627Z,21.90
2018-05-31T23:50:08.208Z,21.90
2018-05-31T23:52:35.869Z,21.80
2018-05-31T23:55:03.556Z,21.80
2018-05-31T23:57:31.879Z,21.80
2018-05-31T23:59:59.510Z,21.80
